Weather at Pioneer Runway

Public forecast

Using degrees Fahrenheit for public forecast. Weather courtesy of forecast.io.

Closest aviation weather report (METAR) to Pioneer Runway

Closest report is Sierra Vista Municipal Airport / Libby Army Air Field, 4.8 nm (8.9 km) ESE. Retrieved 2021/06/25 01:58 UTC (46 minutes ago):

KFHU 250158Z AUTO 26011KT 9SM CLR 31/07 A3005 RMK AO2 SLP095 T03070065

Closest aviation forecast (TAF) to Pioneer Runway

Closest forecast is Sierra Vista Municipal Airport / Libby Army Air Field, 4.8 nm (8.9 km) ESE. Retrieved 2021/06/24 22:18 UTC (4 hours ago):

TAF TAF KFHU 242200Z 2422/2604 28009KT 9999 SCT070 BKN090 QNH3006INS TEMPO 2422/2502 28010G15KT BECMG 2502/2503 29009KT 9999 SCT070 QNH3004INS BECMG 2520/2521 27012G17KT 9999 SKC QNH2998INS TX32/2423Z TN22/2513Z